sensor_id;sensor_type;location;lat;lon;timestamp;pressure;altitude;pressure_sealevel;temperature;humidity
30302;BME280;17111;52.130;5.028;2023-06-14T00:00:02;101653.22;;;27.80;40.94
30302;BME280;17111;52.130;5.028;2023-06-14T00:02:30;101656.78;;;27.80;40.74
30302;BME280;17111;52.130;5.028;2023-06-14T00:04:57;101653.44;;;27.78;40.49
30302;BME280;17111;52.130;5.028;2023-06-14T00:07:37;101652.59;;;27.78;40.80
30302;BME280;17111;52.130;5.028;2023-06-14T00:10:05;101657.00;;;27.79;40.66
30302;BME280;17111;52.130;5.028;2023-06-14T00:12:32;101652.59;;;27.78;40.92
30302;BME280;17111;52.130;5.028;2023-06-14T00:14:58;101652.78;;;27.76;40.58
30302;BME280;17111;52.130;5.028;2023-06-14T00:17:27;101655.50;;;27.76;41.11
30302;BME280;17111;52.130;5.028;2023-06-14T00:19:58;101657.38;;;27.76;40.95
30302;BME280;17111;52.130;5.028;2023-06-14T00:22:25;101662.00;;;27.75;41.11
30302;BME280;17111;52.130;5.028;2023-06-14T00:24:52;101652.28;;;27.73;41.06
30302;BME280;17111;52.130;5.028;2023-06-14T00:27:21;101659.63;;;27.72;40.68
30302;BME280;17111;52.130;5.028;2023-06-14T00:29:47;101653.34;;;27.72;40.94
30302;BME280;17111;52.130;5.028;2023-06-14T00:32:14;101654.41;;;27.71;40.35
30302;BME280;17111;52.130;5.028;2023-06-14T00:34:41;101656.06;;;27.72;40.81
30302;BME280;17111;52.130;5.028;2023-06-14T00:37:07;101655.41;;;27.70;40.60
30302;BME280;17111;52.130;5.028;2023-06-14T00:39:34;101655.41;;;27.70;40.92
30302;BME280;17111;52.130;5.028;2023-06-14T00:42:01;101657.50;;;27.68;40.91
30302;BME280;17111;52.130;5.028;2023-06-14T00:44:28;101654.78;;;27.68;40.28
30302;BME280;17111;52.130;5.028;2023-06-14T00:46:54;101659.56;;;27.66;40.62
30302;BME280;17111;52.130;5.028;2023-06-14T00:49:21;101660.63;;;27.65;40.93
30302;BME280;17111;52.130;5.028;2023-06-14T00:51:48;101657.25;;;27.63;40.58
30302;BME280;17111;52.130;5.028;2023-06-14T00:54:15;101649.09;;;27.63;41.06
30302;BME280;17111;52.130;5.028;2023-06-14T00:56:43;101651.16;;;27.61;40.96
30302;BME280;17111;52.130;5.028;2023-06-14T00:59:10;101650.13;;;27.62;40.45
30302;BME280;17111;52.130;5.028;2023-06-14T01:01:37;101648.66;;;27.59;40.44
30302;BME280;17111;52.130;5.028;2023-06-14T01:04:05;101647.81;;;27.59;41.09
30302;BME280;17111;52.130;5.028;2023-06-14T01:12:16;101660.75;;;27.56;40.42
30302;BME280;17111;52.130;5.028;2023-06-14T01:14:48;101661.81;;;27.55;40.72
30302;BME280;17111;52.130;5.028;2023-06-14T01:17:14;101658.44;;;27.53;40.37
30302;BME280;17111;52.130;5.028;2023-06-14T01:19:43;101651.13;;;27.54;40.62
30302;BME280;17111;52.130;5.028;2023-06-14T01:22:11;101654.03;;;27.52;40.39
30302;BME280;17111;52.130;5.028;2023-06-14T01:24:37;101646.91;;;27.51;40.68
30302;BME280;17111;52.130;5.028;2023-06-14T01:27:05;101649.84;;;27.50;40.53
30302;BME280;17111;52.130;5.028;2023-06-14T01:29:33;101651.69;;;27.49;40.93
30302;BME280;17111;52.130;5.028;2023-06-14T01:32:03;101652.75;;;27.48;40.90
30302;BME280;17111;52.130;5.028;2023-06-14T01:34:30;101651.06;;;27.47;40.86
30302;BME280;17111;52.130;5.028;2023-06-14T01:37:00;101661.13;;;27.47;40.98
30302;BME280;17111;52.130;5.028;2023-06-14T01:39:28;101655.84;;;27.45;40.75
30302;BME280;17111;52.130;5.028;2023-06-14T01:41:54;101665.06;;;27.44;40.91
30302;BME280;17111;52.130;5.028;2023-06-14T01:44:23;101654.38;;;27.43;40.47
30302;BME280;17111;52.130;5.028;2023-06-14T01:46:50;101659.84;;;27.43;40.55
30302;BME280;17111;52.130;5.028;2023-06-14T01:49:17;101658.13;;;27.42;40.93
30302;BME280;17111;52.130;5.028;2023-06-14T01:51:44;101655.59;;;27.40;40.70
30302;BME280;17111;52.130;5.028;2023-06-14T01:54:10;101658.34;;;27.40;40.77
30302;BME280;17111;52.130;5.028;2023-06-14T01:56:37;101664.81;;;27.39;40.54
30302;BME280;17111;52.130;5.028;2023-06-14T01:59:03;101654.97;;;27.38;40.91
30302;BME280;17111;52.130;5.028;2023-06-14T02:01:30;101652.44;;;27.37;40.89
30302;BME280;17111;52.130;5.028;2023-06-14T02:03:57;101648.03;;;27.36;40.55
30302;BME280;17111;52.130;5.028;2023-06-14T02:06:24;101649.06;;;27.35;40.58
30302;BME280;17111;52.130;5.028;2023-06-14T02:08:50;101647.38;;;27.34;40.80
30302;BME280;17111;52.130;5.028;2023-06-14T02:11:17;101648.41;;;27.33;40.57
30302;BME280;17111;52.130;5.028;2023-06-14T02:13:43;101651.34;;;27.31;40.56
30302;BME280;17111;52.130;5.028;2023-06-14T02:16:11;101648.81;;;27.29;40.85
30302;BME280;17111;52.130;5.028;2023-06-14T02:18:37;101642.53;;;27.29;40.75
30302;BME280;17111;52.130;5.028;2023-06-14T02:21:04;101641.69;;;27.28;40.86
30302;BME280;17111;52.130;5.028;2023-06-14T02:23:31;101643.56;;;27.28;40.95
30302;BME280;17111;52.130;5.028;2023-06-14T02:26:00;101647.34;;;27.27;40.43
30302;BME280;17111;52.130;5.028;2023-06-14T02:28:27;101642.94;;;27.26;40.50
30302;BME280;17111;52.130;5.028;2023-06-14T02:30:54;101652.13;;;27.25;40.88
30302;BME280;17111;52.130;5.028;2023-06-14T02:33:20;101654.22;;;27.23;41.14
30302;BME280;17111;52.130;5.028;2023-06-14T02:35:48;101651.47;;;27.23;41.01
30302;BME280;17111;52.130;5.028;2023-06-14T02:38:14;101658.81;;;27.22;40.98
30302;BME280;17111;52.130;5.028;2023-06-14T02:40:41;101654.59;;;27.20;40.87
30302;BME280;17111;52.130;5.028;2023-06-14T02:43:08;101656.47;;;27.19;40.99
30302;BME280;17111;52.130;5.028;2023-06-14T02:45:35;101651.25;;;27.18;40.90
30302;BME280;17111;52.130;5.028;2023-06-14T02:48:02;101646.81;;;27.17;41.04
30302;BME280;17111;52.130;5.028;2023-06-14T02:50:29;101659.56;;;27.16;40.56
30302;BME280;17111;52.130;5.028;2023-06-14T02:52:56;101656.03;;;27.16;40.63
30302;BME280;17111;52.130;5.028;2023-06-14T02:55:23;101655.19;;;27.15;41.01
30302;BME280;17111;52.130;5.028;2023-06-14T02:57:50;101655.38;;;27.14;40.88
30302;BME280;17111;52.130;5.028;2023-06-14T03:00:17;101662.69;;;27.13;41.00
30302;BME280;17111;52.130;5.028;2023-06-14T03:02:44;101662.88;;;27.12;41.02
30302;BME280;17111;52.130;5.028;2023-06-14T03:05:11;101668.31;;;27.12;41.02
30302;BME280;17111;52.130;5.028;2023-06-14T03:07:39;101669.38;;;27.11;40.86
30302;BME280;17111;52.130;5.028;2023-06-14T03:10:08;101672.25;;;27.09;40.89
30302;BME280;17111;52.130;5.028;2023-06-14T03:12:35;101670.56;;;27.08;40.77
30302;BME280;17111;52.130;5.028;2023-06-14T03:15:03;101679.78;;;27.07;40.93
30302;BME280;17111;52.130;5.028;2023-06-14T03:17:30;101678.94;;;27.06;40.98
30302;BME280;17111;52.130;5.028;2023-06-14T03:20:00;101684.38;;;27.06;40.58
30302;BME280;17111;52.130;5.028;2023-06-14T03:22:26;101691.69;;;27.06;40.91
30302;BME280;17111;52.130;5.028;2023-06-14T03:24:54;101690.00;;;27.05;40.84
30302;BME280;17111;52.130;5.028;2023-06-14T03:27:21;101686.44;;;27.04;41.20
30302;BME280;17111;52.130;5.028;2023-06-14T03:29:48;101692.91;;;27.03;40.91
30302;BME280;17111;52.130;5.028;2023-06-14T03:32:14;101684.97;;;27.02;40.80
30302;BME280;17111;52.130;5.028;2023-06-14T03:34:41;101693.97;;;27.02;41.19
30302;BME280;17111;52.130;5.028;2023-06-14T03:37:08;101693.97;;;27.02;41.09
30302;BME280;17111;52.130;5.028;2023-06-14T03:39:34;101696.03;;;27.00;40.96
30302;BME280;17111;52.130;5.028;2023-06-14T03:42:02;101701.47;;;27.00;41.12
30302;BME280;17111;52.130;5.028;2023-06-14T03:44:29;101705.22;;;26.99;41.25
30302;BME280;17111;52.130;5.028;2023-06-14T03:46:55;101701.66;;;26.99;41.00
30302;BME280;17111;52.130;5.028;2023-06-14T03:49:22;101710.66;;;26.99;41.13
30302;BME280;17111;52.130;5.028;2023-06-14T03:51:49;101715.28;;;26.99;41.24
30302;BME280;17111;52.130;5.028;2023-06-14T03:54:18;101710.88;;;26.98;40.99
30302;BME280;17111;52.130;5.028;2023-06-14T03:57:05;101718.16;;;26.97;40.78
30302;BME280;17111;52.130;5.028;2023-06-14T03:59:32;101718.16;;;26.97;40.91
30302;BME280;17111;52.130;5.028;2023-06-14T04:01:59;101716.47;;;26.96;41.02
30302;BME280;17111;52.130;5.028;2023-06-14T04:04:25;101714.81;;;26.95;40.90
30302;BME280;17111;52.130;5.028;2023-06-14T04:06:56;101713.13;;;26.94;41.30
30302;BME280;17111;52.130;5.028;2023-06-14T04:09:27;101715.84;;;26.94;40.89
30302;BME280;17111;52.130;5.028;2023-06-14T04:11:53;101716.84;;;26.93;40.93
30302;BME280;17111;52.130;5.028;2023-06-14T04:14:20;101724.19;;;26.93;40.95
30302;BME280;17111;52.130;5.028;2023-06-14T04:16:48;101724.19;;;26.93;41.12
30302;BME280;17111;52.130;5.028;2023-06-14T04:19:15;101734.22;;;26.92;40.89
30302;BME280;17111;52.130;5.028;2023-06-14T04:21:42;101736.09;;;26.92;41.22
30302;BME280;17111;52.130;5.028;2023-06-14T04:24:09;101733.38;;;26.92;41.13
30302;BME280;17111;52.130;5.028;2023-06-14T04:26:44;101735.28;;;26.91;41.11
30302;BME280;17111;52.130;5.028;2023-06-14T04:29:11;101733.38;;;26.92;40.99
30302;BME280;17111;52.130;5.028;2023-06-14T04:31:43;101734.44;;;26.91;41.15
30302;BME280;17111;52.130;5.028;2023-06-14T04:34:11;101744.28;;;26.92;40.97
30302;BME280;17111;52.130;5.028;2023-06-14T04:36:43;101743.44;;;26.91;41.39
30302;BME280;17111;52.130;5.028;2023-06-14T04:39:16;101741.56;;;26.92;41.00
30302;BME280;17111;52.130;5.028;2023-06-14T04:41:46;101733.38;;;26.92;41.14
30302;BME280;17111;52.130;5.028;2023-06-14T04:44:13;101738.00;;;26.91;40.98
30302;BME280;17111;52.130;5.028;2023-06-14T04:46:40;101737.63;;;26.94;40.99
30302;BME280;17111;52.130;5.028;2023-06-14T04:49:14;101734.06;;;26.94;41.03
30302;BME280;17111;52.130;5.028;2023-06-14T04:51:42;101745.56;;;26.96;40.94
30302;BME280;17111;52.130;5.028;2023-06-14T04:54:09;101744.72;;;26.95;41.07
30302;BME280;17111;52.130;5.028;2023-06-14T04:56:42;101751.84;;;26.96;41.00
30302;BME280;17111;52.130;5.028;2023-06-14T04:59:09;101746.25;;;26.98;40.94
30302;BME280;17111;52.130;5.028;2023-06-14T05:01:37;101743.31;;;26.99;40.65
30302;BME280;17111;52.130;5.028;2023-06-14T05:04:04;101740.41;;;27.01;40.84
30302;BME280;17111;52.130;5.028;2023-06-14T05:06:31;101748.38;;;27.02;40.85
30302;BME280;17111;52.130;5.028;2023-06-14T05:08:58;101751.75;;;27.04;40.96
30302;BME280;17111;52.130;5.028;2023-06-14T05:11:25;101749.84;;;27.05;40.92
30302;BME280;17111;52.130;5.028;2023-06-14T05:13:52;101749.69;;;27.06;41.01
30302;BME280;17111;52.130;5.028;2023-06-14T05:16:22;101749.47;;;27.08;41.05
30302;BME280;17111;52.130;5.028;2023-06-14T05:18:49;101761.91;;;27.11;40.48
30302;BME280;17111;52.130;5.028;2023-06-14T05:21:17;101755.22;;;27.13;40.76
30302;BME280;17111;52.130;5.028;2023-06-14T05:23:45;101753.38;;;27.14;41.02
30302;BME280;17111;52.130;5.028;2023-06-14T05:26:11;101751.28;;;27.16;40.90
30302;BME280;17111;52.130;5.028;2023-06-14T05:28:38;101757.38;;;27.18;40.42
30302;BME280;17111;52.130;5.028;2023-06-14T05:31:05;101750.06;;;27.18;40.89
30302;BME280;17111;52.130;5.028;2023-06-14T05:33:31;101751.75;;;27.19;40.86
30302;BME280;17111;52.130;5.028;2023-06-14T05:35:58;101754.25;;;27.21;40.63
30302;BME280;17111;52.130;5.028;2023-06-14T05:38:25;101752.19;;;27.23;40.35
30302;BME280;17111;52.130;5.028;2023-06-14T05:40:52;101755.56;;;27.25;40.46
30302;BME280;17111;52.130;5.028;2023-06-14T05:43:20;101758.09;;;27.26;40.48
30302;BME280;17111;52.130;5.028;2023-06-14T05:45:47;101755.19;;;27.28;40.13
30302;BME280;17111;52.130;5.028;2023-06-14T05:48:13;101761.28;;;27.30;40.40
30302;BME280;17111;52.130;5.028;2023-06-14T05:50:40;101767.38;;;27.32;40.33
30302;BME280;17111;52.130;5.028;2023-06-14T05:53:06;101766.31;;;27.33;40.25
30302;BME280;17111;52.130;5.028;2023-06-14T05:55:33;101768.88;;;27.35;40.21
30302;BME280;17111;52.130;5.028;2023-06-14T05:57:59;101768.66;;;27.36;40.31
30302;BME280;17111;52.130;5.028;2023-06-14T06:00:27;101777.50;;;27.38;40.25
30302;BME280;17111;52.130;5.028;2023-06-14T06:02:54;101772.06;;;27.38;40.00
30302;BME280;17111;52.130;5.028;2023-06-14T06:05:23;101773.72;;;27.39;39.86
30302;BME280;17111;52.130;5.028;2023-06-14T06:07:50;101772.06;;;27.38;40.31
30302;BME280;17111;52.130;5.028;2023-06-14T06:10:17;101773.06;;;27.37;40.16
30302;BME280;17111;52.130;5.028;2023-06-14T06:12:44;101774.94;;;27.37;39.91
30302;BME280;17111;52.130;5.028;2023-06-14T06:15:11;101774.09;;;27.36;40.30
30302;BME280;17111;52.130;5.028;2023-06-14T06:17:41;101782.47;;;27.35;40.23
30302;BME280;17111;52.130;5.028;2023-06-14T06:20:22;101781.66;;;27.34;40.33
30302;BME280;17111;52.130;5.028;2023-06-14T06:22:55;101780.78;;;27.34;40.05
30302;BME280;17111;52.130;5.028;2023-06-14T06:25:21;101780.78;;;27.34;40.20
30302;BME280;17111;52.130;5.028;2023-06-14T06:27:48;101779.09;;;27.33;40.39
30302;BME280;17111;52.130;5.028;2023-06-14T06:30:15;101785.38;;;27.33;40.06
30302;BME280;17111;52.130;5.028;2023-06-14T06:32:42;101788.31;;;27.31;40.02
30302;BME280;17111;52.130;5.028;2023-06-14T06:35:09;101785.59;;;27.31;40.38
30302;BME280;17111;52.130;5.028;2023-06-14T06:37:37;101784.53;;;27.33;40.09
30302;BME280;17111;52.130;5.028;2023-06-14T06:40:04;101782.03;;;27.31;40.21
30302;BME280;17111;52.130;5.028;2023-06-14T06:42:32;101785.59;;;27.31;39.94
30302;BME280;17111;52.130;5.028;2023-06-14T06:44:59;101789.16;;;27.32;40.15
30302;BME280;17111;52.130;5.028;2023-06-14T06:47:25;101796.47;;;27.31;39.96
30302;BME280;17111;52.130;5.028;2023-06-14T06:49:52;101799.19;;;27.31;40.30
30302;BME280;17111;52.130;5.028;2023-06-14T06:52:19;101796.47;;;27.31;39.87
30302;BME280;17111;52.130;5.028;2023-06-14T06:54:46;101799.19;;;27.31;40.19
30302;BME280;17111;52.130;5.028;2023-06-14T06:57:12;101800.25;;;27.30;40.08
30302;BME280;17111;52.130;5.028;2023-06-14T06:59:40;101802.97;;;27.30;39.88
30302;BME280;17111;52.130;5.028;2023-06-14T07:02:07;101803.81;;;27.31;39.95
30302;BME280;17111;52.130;5.028;2023-06-14T07:04:33;101806.53;;;27.31;39.87
30302;BME280;17111;52.130;5.028;2023-06-14T07:07:00;101808.41;;;27.30;39.84
30302;BME280;17111;52.130;5.028;2023-06-14T07:09:27;101813.00;;;27.30;40.06
30302;BME280;17111;52.130;5.028;2023-06-14T07:11:53;101818.47;;;27.30;40.19
30302;BME280;17111;52.130;5.028;2023-06-14T07:14:20;101817.41;;;27.31;40.01
30302;BME280;17111;52.130;5.028;2023-06-14T07:16:49;101819.28;;;27.30;40.00
30302;BME280;17111;52.130;5.028;2023-06-14T07:19:16;101818.47;;;27.30;39.89
30302;BME280;17111;52.130;5.028;2023-06-14T07:21:43;101820.97;;;27.31;40.16
30302;BME280;17111;52.130;5.028;2023-06-14T07:24:10;101823.69;;;27.31;39.81
30302;BME280;17111;52.130;5.028;2023-06-14T07:26:36;101832.91;;;27.30;39.56
30302;BME280;17111;52.130;5.028;2023-06-14T07:29:03;101826.41;;;27.31;39.81
30302;BME280;17111;52.130;5.028;2023-06-14T07:31:30;101832.72;;;27.32;39.80
30302;BME280;17111;52.130;5.028;2023-06-14T07:33:56;101831.03;;;27.31;39.81
30302;BME280;17111;52.130;5.028;2023-06-14T07:36:23;101839.00;;;27.33;40.02
30302;BME280;17111;52.130;5.028;2023-06-14T07:38:50;101833.53;;;27.33;39.77
30302;BME280;17111;52.130;5.028;2023-06-14T07:41:17;101837.31;;;27.31;39.48
30302;BME280;17111;52.130;5.028;2023-06-14T07:43:43;101834.38;;;27.33;39.76
30302;BME280;17111;52.130;5.028;2023-06-14T07:46:10;101845.47;;;27.31;40.06
30302;BME280;17111;52.130;5.028;2023-06-14T07:48:37;101842.56;;;27.33;39.88
30302;BME280;17111;52.130;5.028;2023-06-14T07:51:04;101841.53;;;27.34;39.56
30302;BME280;17111;52.130;5.028;2023-06-14T07:53:31;101846.97;;;27.34;39.63
30302;BME280;17111;52.130;5.028;2023-06-14T07:55:57;101846.97;;;27.34;39.94
30302;BME280;17111;52.130;5.028;2023-06-14T07:58:24;101846.97;;;27.34;39.53
30302;BME280;17111;52.130;5.028;2023-06-14T08:00:51;101857.66;;;27.36;39.55
30302;BME280;17111;52.130;5.028;2023-06-14T08:03:17;101855.78;;;27.36;39.43
30302;BME280;17111;52.130;5.028;2023-06-14T08:05:45;101852.03;;;27.37;39.50
30302;BME280;17111;52.130;5.028;2023-06-14T08:08:11;101854.75;;;27.37;39.84
30302;BME280;17111;52.130;5.028;2023-06-14T08:10:39;101853.72;;;27.38;39.21
30302;BME280;17111;52.130;5.028;2023-06-14T08:13:05;101852.69;;;27.39;39.69
30302;BME280;17111;52.130;5.028;2023-06-14T08:15:32;101852.69;;;27.39;39.47
30302;BME280;17111;52.130;5.028;2023-06-14T08:18:00;101858.78;;;27.41;39.61
30302;BME280;17111;52.130;5.028;2023-06-14T08:20:27;101856.03;;;27.41;39.34
30302;BME280;17111;52.130;5.028;2023-06-14T08:22:54;101858.78;;;27.41;39.20
30302;BME280;17111;52.130;5.028;2023-06-14T08:25:23;101844.16;;;27.42;39.46
30302;BME280;17111;52.130;5.028;2023-06-14T08:27:50;101844.16;;;27.42;39.11
30302;BME280;17111;52.130;5.028;2023-06-14T08:30:16;101852.94;;;27.44;39.57
30302;BME280;17111;52.130;5.028;2023-06-14T08:32:44;101842.91;;;27.45;39.03
30302;BME280;17111;52.130;5.028;2023-06-14T08:35:11;101851.91;;;27.45;39.27
30302;BME280;17111;52.130;5.028;2023-06-14T08:37:40;101847.34;;;27.46;39.33
30302;BME280;17111;52.130;5.028;2023-06-14T08:40:27;101851.91;;;27.45;38.75
30302;BME280;17111;52.130;5.028;2023-06-14T08:42:56;101849.00;;;27.47;39.35
30302;BME280;17111;52.130;5.028;2023-06-14T08:45:24;101855.28;;;27.47;39.42
30302;BME280;17111;52.130;5.028;2023-06-14T08:47:54;101854.25;;;27.48;39.19
30302;BME280;17111;52.130;5.028;2023-06-14T08:50:25;101846.94;;;27.49;38.87
30302;BME280;17111;52.130;5.028;2023-06-14T08:53:01;101847.75;;;27.49;39.35
30302;BME280;17111;52.130;5.028;2023-06-14T08:55:30;101850.31;;;27.51;39.29
30302;BME280;17111;52.130;5.028;2023-06-14T08:58:02;101864.56;;;27.53;39.07
30302;BME280;17111;52.130;5.028;2023-06-14T09:00:30;101857.22;;;27.53;38.82
30302;BME280;17111;52.130;5.028;2023-06-14T09:02:57;101850.09;;;27.52;39.20
30302;BME280;17111;52.130;5.028;2023-06-14T09:05:26;101853.50;;;27.54;38.80
30302;BME280;17111;52.130;5.028;2023-06-14T09:07:53;101849.72;;;27.55;38.90
30302;BME280;17111;52.130;5.028;2023-06-14T09:10:24;101852.25;;;27.57;38.91
30302;BME280;17111;52.130;5.028;2023-06-14T09:12:53;101854.78;;;27.59;39.06
30302;BME280;17111;52.130;5.028;2023-06-14T09:15:20;101851.03;;;27.60;38.92
30302;BME280;17111;52.130;5.028;2023-06-14T09:17:47;101852.53;;;27.62;38.80
30302;BME280;17111;52.130;5.028;2023-06-14T09:20:15;101856.72;;;27.65;39.40
30302;BME280;17111;52.130;5.028;2023-06-14T09:22:46;101862.00;;;27.66;39.25
30302;BME280;17111;52.130;5.028;2023-06-14T09:25:13;101862.44;;;27.70;38.87
30302;BME280;17111;52.130;5.028;2023-06-14T09:27:58;101856.59;;;27.73;38.82
30302;BME280;17111;52.130;5.028;2023-06-14T09:30:25;101862.56;;;27.76;39.30
30302;BME280;17111;52.130;5.028;2023-06-14T09:32:53;101856.72;;;27.79;38.80
30302;BME280;17111;52.130;5.028;2023-06-14T09:35:20;101850.88;;;27.83;39.32
30302;BME280;17111;52.130;5.028;2023-06-14T09:37:48;101857.63;;;27.87;39.25
30302;BME280;17111;52.130;5.028;2023-06-14T09:40:20;101862.66;;;27.90;38.98
30302;BME280;17111;52.130;5.028;2023-06-14T09:42:47;101857.69;;;27.93;39.03
30302;BME280;17111;52.130;5.028;2023-06-14T09:45:14;101867.16;;;27.97;39.15
30302;BME280;17111;52.130;5.028;2023-06-14T09:47:46;101857.75;;;28.00;39.39
30302;BME280;17111;52.130;5.028;2023-06-14T09:50:31;101863.44;;;28.05;38.81
30302;BME280;17111;52.130;5.028;2023-06-14T09:53:03;101869.56;;;28.07;38.35
30302;BME280;17111;52.130;5.028;2023-06-14T09:55:31;101871.03;;;28.10;38.49
30302;BME280;17111;52.130;5.028;2023-06-14T09:58:06;101870.25;;;28.16;38.62
30302;BME280;17111;52.130;5.028;2023-06-14T10:00:35;101868.16;;;28.18;38.75
30302;BME280;17111;52.130;5.028;2023-06-14T10:03:16;101866.94;;;28.20;38.76
30302;BME280;17111;52.130;5.028;2023-06-14T10:05:48;101857.53;;;28.23;39.17
30302;BME280;17111;52.130;5.028;2023-06-14T10:08:19;101856.28;;;28.25;38.50
30302;BME280;17111;52.130;5.028;2023-06-14T10:10:46;101861.56;;;28.27;38.50
30302;BME280;17111;52.130;5.028;2023-06-14T10:13:13;101861.13;;;28.30;38.67
30302;BME280;17111;52.130;5.028;2023-06-14T10:18:28;101854.25;;;28.34;38.54
30302;BME280;17111;52.130;5.028;2023-06-14T10:23:28;101860.84;;;28.40;38.35
30302;BME280;17111;52.130;5.028;2023-06-14T10:25:59;101854.34;;;28.41;38.46
30302;BME280;17111;52.130;5.028;2023-06-14T10:28:26;101850.38;;;28.43;38.85
30302;BME280;17111;52.130;5.028;2023-06-14T10:31:06;101861.91;;;28.45;38.32
30302;BME280;17111;52.130;5.028;2023-06-14T10:33:35;101863.41;;;28.48;38.13
30302;BME280;17111;52.130;5.028;2023-06-14T10:36:28;101854.19;;;28.49;38.67
30302;BME280;17111;52.130;5.028;2023-06-14T10:39:07;101854.84;;;28.51;38.40
30302;BME280;17111;52.130;5.028;2023-06-14T10:41:38;101853.59;;;28.53;38.04
30302;BME280;17111;52.130;5.028;2023-06-14T10:46:46;101854.88;;;28.58;38.77
30302;BME280;17111;52.130;5.028;2023-06-14T10:49:16;101856.38;;;28.60;38.75
30302;BME280;17111;52.130;5.028;2023-06-14T10:51:50;101860.78;;;28.61;38.45
30302;BME280;17111;52.130;5.028;2023-06-14T10:54:21;101863.31;;;28.63;38.27
30302;BME280;17111;52.130;5.028;2023-06-14T10:56:50;101853.88;;;28.65;38.65
30302;BME280;17111;52.130;5.028;2023-06-14T10:59:18;101864.59;;;28.67;37.79
30302;BME280;17111;52.130;5.028;2023-06-14T11:01:58;101856.44;;;28.67;37.92
30302;BME280;17111;52.130;5.028;2023-06-14T11:04:47;101865.22;;;28.69;38.62
30302;BME280;17111;52.130;5.028;2023-06-14T11:10:36;101855.59;;;28.73;38.34
30302;BME280;17111;52.130;5.028;2023-06-14T11:13:07;101858.78;;;28.76;38.46
30302;BME280;17111;52.130;5.028;2023-06-14T11:15:38;101850.38;;;28.78;38.60
30302;BME280;17111;52.130;5.028;2023-06-14T11:18:06;101852.09;;;28.79;38.45
30302;BME280;17111;52.130;5.028;2023-06-14T11:20:34;101851.66;;;28.82;38.24
30302;BME280;17111;52.130;5.028;2023-06-14T11:23:04;101857.13;;;28.82;38.03
30302;BME280;17111;52.130;5.028;2023-06-14T11:25:31;101847.91;;;28.83;38.34
30302;BME280;17111;52.130;5.028;2023-06-14T11:27:58;101850.44;;;28.85;38.42
30302;BME280;17111;52.130;5.028;2023-06-14T11:30:25;101846.66;;;28.86;37.91
30302;BME280;17111;52.130;5.028;2023-06-14T11:32:53;101843.72;;;28.87;38.17
30302;BME280;17111;52.130;5.028;2023-06-14T11:35:25;101848.97;;;28.89;37.88
30302;BME280;17111;52.130;5.028;2023-06-14T11:37:55;101847.94;;;28.90;37.64
30302;BME280;17111;52.130;5.028;2023-06-14T11:40:24;101831.38;;;28.91;37.51
30302;BME280;17111;52.130;5.028;2023-06-14T11:42:58;101851.09;;;28.93;37.30
30302;BME280;17111;52.130;5.028;2023-06-14T11:45:26;101850.03;;;28.94;37.21
30302;BME280;17111;52.130;5.028;2023-06-14T11:47:57;101839.78;;;28.96;37.86
30302;BME280;17111;52.130;5.028;2023-06-14T11:50:25;101839.78;;;28.96;37.58
30302;BME280;17111;52.130;5.028;2023-06-14T11:52:56;101838.75;;;28.97;38.02
30302;BME280;17111;52.130;5.028;2023-06-14T11:55:23;101839.41;;;28.99;37.96
30302;BME280;17111;52.130;5.028;2023-06-14T11:57:51;101846.56;;;29.00;37.38
30302;BME280;17111;52.130;5.028;2023-06-14T12:00:18;101836.25;;;29.02;37.49
30302;BME280;17111;52.130;5.028;2023-06-14T12:02:54;101834.59;;;29.01;37.33
30302;BME280;17111;52.130;5.028;2023-06-14T12:05:25;101833.53;;;29.02;37.52
30302;BME280;17111;52.130;5.028;2023-06-14T12:08:00;101837.13;;;29.03;37.82
30302;BME280;17111;52.130;5.028;2023-06-14T12:10:29;101840.47;;;29.05;37.45
30302;BME280;17111;52.130;5.028;2023-06-14T12:12:58;101840.25;;;29.07;37.13
30302;BME280;17111;52.130;5.028;2023-06-14T12:15:27;101839.25;;;29.08;37.94
30302;BME280;17111;52.130;5.028;2023-06-14T12:17:55;101838.41;;;29.07;37.22
30302;BME280;17111;52.130;5.028;2023-06-14T12:20:22;101841.75;;;29.09;37.49
30302;BME280;17111;52.130;5.028;2023-06-14T12:22:54;101839.88;;;29.10;37.23
30302;BME280;17111;52.130;5.028;2023-06-14T12:25:25;101833.56;;;29.09;37.72
30302;BME280;17111;52.130;5.028;2023-06-14T12:27:57;101844.31;;;29.11;37.13
30302;BME280;17111;52.130;5.028;2023-06-14T12:30:24;101827.94;;;29.11;37.39
30302;BME280;17111;52.130;5.028;2023-06-14T12:32:50;101837.78;;;29.12;37.49
30302;BME280;17111;52.130;5.028;2023-06-14T12:35:18;101830.66;;;29.11;37.34
30302;BME280;17111;52.130;5.028;2023-06-14T12:37:47;101834.22;;;29.11;37.74
30302;BME280;17111;52.130;5.028;2023-06-14T12:40:14;101846.81;;;29.12;37.31
30302;BME280;17111;52.130;5.028;2023-06-14T12:42:41;101834.22;;;29.11;37.72
30302;BME280;17111;52.130;5.028;2023-06-14T12:45:08;101837.78;;;29.12;37.75
30302;BME280;17111;52.130;5.028;2023-06-14T12:47:35;101836.75;;;29.13;37.54
30302;BME280;17111;52.130;5.028;2023-06-14T12:50:02;101834.00;;;29.13;37.49
30302;BME280;17111;52.130;5.028;2023-06-14T12:52:29;101836.75;;;29.13;37.19
30302;BME280;17111;52.130;5.028;2023-06-14T12:54:56;101837.56;;;29.13;37.17
30302;BME280;17111;52.130;5.028;2023-06-14T12:57:23;101834.84;;;29.13;37.04
30302;BME280;17111;52.130;5.028;2023-06-14T12:59:50;101838.41;;;29.14;37.56
30302;BME280;17111;52.130;5.028;2023-06-14T13:02:18;101835.69;;;29.14;37.56
30302;BME280;17111;52.130;5.028;2023-06-14T13:04:46;101839.25;;;29.14;37.36
30302;BME280;17111;52.130;5.028;2023-06-14T13:07:13;101828.53;;;29.13;37.20
30302;BME280;17111;52.130;5.028;2023-06-14T13:09:41;101832.94;;;29.14;37.25
30302;BME280;17111;52.130;5.028;2023-06-14T13:12:09;101833.78;;;29.14;37.42